sensor_id;sensor_type;location;lat;lon;timestamp;temperature;humidity
15274;DHT22;7738;49.532;11.156;2023-02-28T00:03:45;-3.90;99.90
15274;DHT22;7738;49.532;11.156;2023-02-28T00:06:15;-3.90;99.90
15274;DHT22;7738;49.532;11.156;2023-02-28T00:08:45;-3.80;99.90
15274;DHT22;7738;49.532;11.156;2023-02-28T00:11:15;-3.70;99.90
15274;DHT22;7738;49.532;11.156;2023-02-28T00:13:47;-3.80;99.90
15274;DHT22;7738;49.532;11.156;2023-02-28T00:16:19;-3.70;99.90
15274;DHT22;7738;49.532;11.156;2023-02-28T00:18:52;-3.40;99.90
15274;DHT22;7738;49.532;11.156;2023-02-28T00:21:22;-3.60;99.90
15274;DHT22;7738;49.532;11.156;2023-02-28T00:23:52;-3.70;99.90
15274;DHT22;7738;49.532;11.156;2023-02-28T00:26:22;-3.60;99.90
15274;DHT22;7738;49.532;11.156;2023-02-28T00:31:22;-3.60;99.90
15274;DHT22;7738;49.532;11.156;2023-02-28T00:33:55;-3.60;99.90
15274;DHT22;7738;49.532;11.156;2023-02-28T00:36:25;-3.80;99.90
15274;DHT22;7738;49.532;11.156;2023-02-28T00:38:55;-3.60;99.90
15274;DHT22;7738;49.532;11.156;2023-02-28T00:41:27;-3.60;99.90
15274;DHT22;7738;49.532;11.156;2023-02-28T00:43:57;-3.60;99.90
15274;DHT22;7738;49.532;11.156;2023-02-28T00:46:27;-3.60;99.90
15274;DHT22;7738;49.532;11.156;2023-02-28T00:49:00;-3.50;99.90
15274;DHT22;7738;49.532;11.156;2023-02-28T00:51:30;-3.70;99.90
15274;DHT22;7738;49.532;11.156;2023-02-28T00:56:31;-3.60;99.90
15274;DHT22;7738;49.532;11.156;2023-02-28T01:04:04;-3.60;99.90
15274;DHT22;7738;49.532;11.156;2023-02-28T01:09:06;-3.60;99.90
15274;DHT22;7738;49.532;11.156;2023-02-28T01:14:11;-2.20;99.90
15274;DHT22;7738;49.532;11.156;2023-02-28T01:16:42;-3.70;99.90
15274;DHT22;7738;49.532;11.156;2023-02-28T01:19:14;-3.60;99.90
15274;DHT22;7738;49.532;11.156;2023-02-28T01:21:46;-3.60;99.90
15274;DHT22;7738;49.532;11.156;2023-02-28T01:24:16;-3.70;99.90
15274;DHT22;7738;49.532;11.156;2023-02-28T01:26:46;-3.70;99.90
15274;DHT22;7738;49.532;11.156;2023-02-28T01:29:15;-3.70;99.90
15274;DHT22;7738;49.532;11.156;2023-02-28T01:34:18;-3.70;99.90
15274;DHT22;7738;49.532;11.156;2023-02-28T01:36:50;-3.20;99.90
15274;DHT22;7738;49.532;11.156;2023-02-28T01:39:20;-3.70;99.90
15274;DHT22;7738;49.532;11.156;2023-02-28T01:47:20;-3.70;99.90
15274;DHT22;7738;49.532;11.156;2023-02-28T01:49:53;-3.70;99.90
15274;DHT22;7738;49.532;11.156;2023-02-28T01:52:24;-3.70;99.90
15274;DHT22;7738;49.532;11.156;2023-02-28T01:54:56;-3.80;99.90
15274;DHT22;7738;49.532;11.156;2023-02-28T01:57:33;-3.70;99.90
15274;DHT22;7738;49.532;11.156;2023-02-28T02:00:08;-3.40;99.90
15274;DHT22;7738;49.532;11.156;2023-02-28T02:02:42;-3.70;99.90
15274;DHT22;7738;49.532;11.156;2023-02-28T02:05:19;-3.80;99.90
15274;DHT22;7738;49.532;11.156;2023-02-28T02:07:52;-3.70;99.90
15274;DHT22;7738;49.532;11.156;2023-02-28T02:10:29;-3.80;99.90
15274;DHT22;7738;49.532;11.156;2023-02-28T02:13:19;-3.80;99.90
15274;DHT22;7738;49.532;11.156;2023-02-28T02:15:57;-3.80;99.90
15274;DHT22;7738;49.532;11.156;2023-02-28T02:18:33;-3.80;99.90
15274;DHT22;7738;49.532;11.156;2023-02-28T02:27:24;-3.80;99.90
15274;DHT22;7738;49.532;11.156;2023-02-28T02:36:04;-3.80;99.90
15274;DHT22;7738;49.532;11.156;2023-02-28T02:38:43;-3.80;99.90
15274;DHT22;7738;49.532;11.156;2023-02-28T02:41:18;-3.80;99.90
15274;DHT22;7738;49.532;11.156;2023-02-28T02:43:53;-3.30;99.90
15274;DHT22;7738;49.532;11.156;2023-02-28T02:46:28;-3.80;99.90
15274;DHT22;7738;49.532;11.156;2023-02-28T02:49:00;-3.30;99.90
15274;DHT22;7738;49.532;11.156;2023-02-28T02:51:38;-3.50;99.90
15274;DHT22;7738;49.532;11.156;2023-02-28T02:54:14;-3.90;99.90
15274;DHT22;7738;49.532;11.156;2023-02-28T02:56:48;-3.80;99.90
15274;DHT22;7738;49.532;11.156;2023-02-28T02:59:21;-3.90;99.90
15274;DHT22;7738;49.532;11.156;2023-02-28T03:04:26;-3.90;99.90
15274;DHT22;7738;49.532;11.156;2023-02-28T03:07:01;-3.90;99.90
15274;DHT22;7738;49.532;11.156;2023-02-28T03:09:33;-3.90;99.90
15274;DHT22;7738;49.532;11.156;2023-02-28T03:12:09;-3.90;99.90
15274;DHT22;7738;49.532;11.156;2023-02-28T03:14:51;-3.60;99.90
15274;DHT22;7738;49.532;11.156;2023-02-28T03:17:50;-3.90;99.90
15274;DHT22;7738;49.532;11.156;2023-02-28T03:20:32;-3.90;99.90
15274;DHT22;7738;49.532;11.156;2023-02-28T03:23:15;-3.70;99.90
15274;DHT22;7738;49.532;11.156;2023-02-28T03:25:54;-3.30;99.90
15274;DHT22;7738;49.532;11.156;2023-02-28T03:28:31;-3.60;99.90
15274;DHT22;7738;49.532;11.156;2023-02-28T03:31:07;-3.60;99.90
15274;DHT22;7738;49.532;11.156;2023-02-28T03:33:43;-3.10;99.90
15274;DHT22;7738;49.532;11.156;2023-02-28T03:36:24;-3.90;99.90
15274;DHT22;7738;49.532;11.156;2023-02-28T03:38:59;-3.20;99.90
15274;DHT22;7738;49.532;11.156;2023-02-28T03:41:36;-3.40;99.90
15274;DHT22;7738;49.532;11.156;2023-02-28T03:44:10;-3.60;99.90
15274;DHT22;7738;49.532;11.156;2023-02-28T03:46:45;-3.70;99.90
15274;DHT22;7738;49.532;11.156;2023-02-28T03:49:20;-4.00;99.90
15274;DHT22;7738;49.532;11.156;2023-02-28T03:51:52;-3.90;99.90
15274;DHT22;7738;49.532;11.156;2023-02-28T03:54:29;-4.00;99.90
15274;DHT22;7738;49.532;11.156;2023-02-28T03:57:05;-4.30;99.90
15274;DHT22;7738;49.532;11.156;2023-02-28T03:59:39;-3.70;99.90
15274;DHT22;7738;49.532;11.156;2023-02-28T04:02:11;-3.60;99.90
15274;DHT22;7738;49.532;11.156;2023-02-28T04:04:41;-3.40;99.90
15274;DHT22;7738;49.532;11.156;2023-02-28T04:07:16;-4.10;99.90
15274;DHT22;7738;49.532;11.156;2023-02-28T04:09:49;-4.10;99.90
15274;DHT22;7738;49.532;11.156;2023-02-28T04:12:19;-3.60;99.90
15274;DHT22;7738;49.532;11.156;2023-02-28T04:14:50;-3.30;99.90
15274;DHT22;7738;49.532;11.156;2023-02-28T04:17:20;-3.60;99.90
15274;DHT22;7738;49.532;11.156;2023-02-28T04:19:50;-3.50;99.90
15274;DHT22;7738;49.532;11.156;2023-02-28T04:22:21;-3.50;99.90
15274;DHT22;7738;49.532;11.156;2023-02-28T04:24:55;-3.70;99.90
15274;DHT22;7738;49.532;11.156;2023-02-28T04:27:25;-3.80;99.90
15274;DHT22;7738;49.532;11.156;2023-02-28T04:29:58;-4.00;99.90
15274;DHT22;7738;49.532;11.156;2023-02-28T04:32:28;-3.30;99.90
15274;DHT22;7738;49.532;11.156;2023-02-28T04:34:58;-3.40;99.90
15274;DHT22;7738;49.532;11.156;2023-02-28T04:37:29;-4.00;99.90
15274;DHT22;7738;49.532;11.156;2023-02-28T04:40:05;-3.70;99.90
15274;DHT22;7738;49.532;11.156;2023-02-28T04:42:35;-4.00;99.90
15274;DHT22;7738;49.532;11.156;2023-02-28T04:45:07;-3.40;99.90
15274;DHT22;7738;49.532;11.156;2023-02-28T04:50:09;-4.00;99.90
15274;DHT22;7738;49.532;11.156;2023-02-28T04:52:39;-4.00;99.90
15274;DHT22;7738;49.532;11.156;2023-02-28T04:55:11;-3.10;99.90
15274;DHT22;7738;49.532;11.156;2023-02-28T04:57:41;-4.00;99.90
15274;DHT22;7738;49.532;11.156;2023-02-28T05:00:12;-3.30;99.90
15274;DHT22;7738;49.532;11.156;2023-02-28T05:02:43;-4.00;99.90
15274;DHT22;7738;49.532;11.156;2023-02-28T05:05:13;-3.70;99.90
15274;DHT22;7738;49.532;11.156;2023-02-28T05:07:45;-3.60;99.90
15274;DHT22;7738;49.532;11.156;2023-02-28T05:10:18;-4.00;99.90
15274;DHT22;7738;49.532;11.156;2023-02-28T05:12:48;-3.70;99.90
15274;DHT22;7738;49.532;11.156;2023-02-28T05:15:18;-4.10;99.90
15274;DHT22;7738;49.532;11.156;2023-02-28T05:17:48;-3.60;99.90
15274;DHT22;7738;49.532;11.156;2023-02-28T05:20:18;-3.30;99.90
15274;DHT22;7738;49.532;11.156;2023-02-28T05:22:49;-4.10;99.90
15274;DHT22;7738;49.532;11.156;2023-02-28T05:25:22;-3.70;99.90
15274;DHT22;7738;49.532;11.156;2023-02-28T05:27:52;-3.90;99.90
15274;DHT22;7738;49.532;11.156;2023-02-28T05:30:22;-4.10;99.90
15274;DHT22;7738;49.532;11.156;2023-02-28T05:32:52;-4.20;99.90
15274;DHT22;7738;49.532;11.156;2023-02-28T05:35:22;-3.40;99.90
15274;DHT22;7738;49.532;11.156;2023-02-28T05:37:52;-3.90;99.90
15274;DHT22;7738;49.532;11.156;2023-02-28T05:40:25;-4.20;99.90
15274;DHT22;7738;49.532;11.156;2023-02-28T05:42:55;-4.10;99.90
15274;DHT22;7738;49.532;11.156;2023-02-28T05:45:25;-4.10;99.90
15274;DHT22;7738;49.532;11.156;2023-02-28T05:47:55;-4.20;99.90
15274;DHT22;7738;49.532;11.156;2023-02-28T05:50:26;-3.30;99.90
15274;DHT22;7738;49.532;11.156;2023-02-28T05:52:56;-4.20;99.90
15274;DHT22;7738;49.532;11.156;2023-02-28T05:55:28;-3.60;99.90
15274;DHT22;7738;49.532;11.156;2023-02-28T05:57:58;-4.10;99.90
15274;DHT22;7738;49.532;11.156;2023-02-28T06:00:28;-2.90;99.90
15274;DHT22;7738;49.532;11.156;2023-02-28T06:02:58;-3.70;99.90
15274;DHT22;7738;49.532;11.156;2023-02-28T06:05:29;-3.50;99.90
15274;DHT22;7738;49.532;11.156;2023-02-28T06:08:00;-4.20;99.90
15274;DHT22;7738;49.532;11.156;2023-02-28T06:10:32;-3.50;99.90
15274;DHT22;7738;49.532;11.156;2023-02-28T06:13:03;-3.60;99.90
15274;DHT22;7738;49.532;11.156;2023-02-28T06:15:33;-3.40;99.90
15274;DHT22;7738;49.532;11.156;2023-02-28T06:18:04;-3.90;99.90
15274;DHT22;7738;49.532;11.156;2023-02-28T06:20:34;-4.40;99.90
15274;DHT22;7738;49.532;11.156;2023-02-28T06:23:04;-4.30;99.90
15274;DHT22;7738;49.532;11.156;2023-02-28T06:25:36;-3.90;99.90
15274;DHT22;7738;49.532;11.156;2023-02-28T06:28:06;-4.10;99.90
15274;DHT22;7738;49.532;11.156;2023-02-28T06:30:37;-3.50;99.90
15274;DHT22;7738;49.532;11.156;2023-02-28T06:33:07;-3.40;99.90
15274;DHT22;7738;49.532;11.156;2023-02-28T06:35:37;-4.10;99.90
15274;DHT22;7738;49.532;11.156;2023-02-28T06:38:07;-3.50;99.90
15274;DHT22;7738;49.532;11.156;2023-02-28T06:40:40;-3.40;99.90
15274;DHT22;7738;49.532;11.156;2023-02-28T06:43:10;-3.90;99.90
15274;DHT22;7738;49.532;11.156;2023-02-28T06:45:42;-4.20;99.90
15274;DHT22;7738;49.532;11.156;2023-02-28T06:48:12;-3.80;99.90
15274;DHT22;7738;49.532;11.156;2023-02-28T06:50:42;-3.80;99.90
15274;DHT22;7738;49.532;11.156;2023-02-28T06:53:13;-2.80;99.90
15274;DHT22;7738;49.532;11.156;2023-02-28T06:55:46;-3.70;99.90
15274;DHT22;7738;49.532;11.156;2023-02-28T06:58:16;-3.60;99.90
15274;DHT22;7738;49.532;11.156;2023-02-28T07:00:50;-3.70;99.90
15274;DHT22;7738;49.532;11.156;2023-02-28T07:03:21;-3.50;99.90
15274;DHT22;7738;49.532;11.156;2023-02-28T07:05:51;-3.40;99.90
15274;DHT22;7738;49.532;11.156;2023-02-28T07:08:23;-3.30;99.90
15274;DHT22;7738;49.532;11.156;2023-02-28T07:10:56;-3.20;99.90
15274;DHT22;7738;49.532;11.156;2023-02-28T07:13:26;-3.20;99.90
15274;DHT22;7738;49.532;11.156;2023-02-28T07:15:58;-3.10;99.90
15274;DHT22;7738;49.532;11.156;2023-02-28T07:18:28;-3.00;99.90
15274;DHT22;7738;49.532;11.156;2023-02-28T07:21:02;-2.90;99.90
15274;DHT22;7738;49.532;11.156;2023-02-28T07:23:33;-2.90;99.90
15274;DHT22;7738;49.532;11.156;2023-02-28T07:26:11;-3.00;99.90
15274;DHT22;7738;49.532;11.156;2023-02-28T07:28:43;-2.60;99.90
15274;DHT22;7738;49.532;11.156;2023-02-28T07:31:14;-2.70;99.90
15274;DHT22;7738;49.532;11.156;2023-02-28T07:33:45;-2.60;99.90
15274;DHT22;7738;49.532;11.156;2023-02-28T07:36:16;-2.60;99.90
15274;DHT22;7738;49.532;11.156;2023-02-28T07:38:47;-2.30;99.90
15274;DHT22;7738;49.532;11.156;2023-02-28T07:41:21;-2.50;99.90
15274;DHT22;7738;49.532;11.156;2023-02-28T07:43:55;-2.40;99.90
15274;DHT22;7738;49.532;11.156;2023-02-28T07:46:26;-2.30;99.90
15274;DHT22;7738;49.532;11.156;2023-02-28T07:49:03;-2.30;99.90
15274;DHT22;7738;49.532;11.156;2023-02-28T07:51:33;-2.30;99.90
15274;DHT22;7738;49.532;11.156;2023-02-28T07:54:03;-2.30;99.90
15274;DHT22;7738;49.532;11.156;2023-02-28T07:56:36;-2.10;99.90
15274;DHT22;7738;49.532;11.156;2023-02-28T07:59:06;-2.10;99.90
15274;DHT22;7738;49.532;11.156;2023-02-28T08:01:36;-2.10;99.90
15274;DHT22;7738;49.532;11.156;2023-02-28T08:04:06;-2.00;99.90
15274;DHT22;7738;49.532;11.156;2023-02-28T08:06:36;-2.00;99.90
15274;DHT22;7738;49.532;11.156;2023-02-28T08:09:06;-1.90;99.90
15274;DHT22;7738;49.532;11.156;2023-02-28T08:11:38;-1.80;99.90
15274;DHT22;7738;49.532;11.156;2023-02-28T08:14:08;-1.40;99.90
15274;DHT22;7738;49.532;11.156;2023-02-28T08:16:38;-1.70;99.90
15274;DHT22;7738;49.532;11.156;2023-02-28T08:21:40;-1.50;99.90
15274;DHT22;7738;49.532;11.156;2023-02-28T08:24:10;-1.40;99.90
15274;DHT22;7738;49.532;11.156;2023-02-28T08:26:43;-1.40;99.90
15274;DHT22;7738;49.532;11.156;2023-02-28T08:29:13;-1.40;99.90
15274;DHT22;7738;49.532;11.156;2023-02-28T08:31:43;-1.30;99.90
15274;DHT22;7738;49.532;11.156;2023-02-28T08:34:15;-1.20;99.90
15274;DHT22;7738;49.532;11.156;2023-02-28T08:36:45;-1.10;99.90
15274;DHT22;7738;49.532;11.156;2023-02-28T08:39:15;-1.00;99.90
15274;DHT22;7738;49.532;11.156;2023-02-28T08:41:49;-0.90;99.90
15274;DHT22;7738;49.532;11.156;2023-02-28T08:44:33;-1.00;99.90
15274;DHT22;7738;49.532;11.156;2023-02-28T08:47:03;-0.80;99.90
15274;DHT22;7738;49.532;11.156;2023-02-28T08:49:33;-0.80;99.90
15274;DHT22;7738;49.532;11.156;2023-02-28T08:52:04;-0.80;99.90
15274;DHT22;7738;49.532;11.156;2023-02-28T08:54:35;-0.80;99.90
15274;DHT22;7738;49.532;11.156;2023-02-28T08:57:08;-0.80;99.90
15274;DHT22;7738;49.532;11.156;2023-02-28T08:59:38;-0.60;99.90
15274;DHT22;7738;49.532;11.156;2023-02-28T09:02:09;-0.70;99.90
15274;DHT22;7738;49.532;11.156;2023-02-28T09:04:41;-0.80;99.90
15274;DHT22;7738;49.532;11.156;2023-02-28T09:07:12;-0.60;99.90
15274;DHT22;7738;49.532;11.156;2023-02-28T09:09:43;-0.50;99.90
15274;DHT22;7738;49.532;11.156;2023-02-28T09:12:24;-0.30;99.90
15274;DHT22;7738;49.532;11.156;2023-02-28T09:14:55;-0.20;99.90
15274;DHT22;7738;49.532;11.156;2023-02-28T09:17:25;-0.10;99.90
15274;DHT22;7738;49.532;11.156;2023-02-28T09:19:57;-0.10;99.90
15274;DHT22;7738;49.532;11.156;2023-02-28T09:22:27;0.00;99.90
15274;DHT22;7738;49.532;11.156;2023-02-28T09:24:57;0.10;99.90
15274;DHT22;7738;49.532;11.156;2023-02-28T09:27:30;0.10;99.90
15274;DHT22;7738;49.532;11.156;2023-02-28T09:30:00;0.20;99.90
15274;DHT22;7738;49.532;11.156;2023-02-28T09:32:30;0.20;99.50
15274;DHT22;7738;49.532;11.156;2023-02-28T09:35:00;0.40;99.90
15274;DHT22;7738;49.532;11.156;2023-02-28T09:37:30;0.40;99.50
15274;DHT22;7738;49.532;11.156;2023-02-28T09:40:00;0.30;99.70
15274;DHT22;7738;49.532;11.156;2023-02-28T09:42:34;0.40;99.70
15274;DHT22;7738;49.532;11.156;2023-02-28T09:45:10;0.30;98.90
15274;DHT22;7738;49.532;11.156;2023-02-28T09:47:45;0.30;98.10
15274;DHT22;7738;49.532;11.156;2023-02-28T09:50:31;0.40;97.90
15274;DHT22;7738;49.532;11.156;2023-02-28T09:53:08;0.60;97.40
15274;DHT22;7738;49.532;11.156;2023-02-28T09:55:43;0.80;97.00
15274;DHT22;7738;49.532;11.156;2023-02-28T09:58:23;1.00;96.10
15274;DHT22;7738;49.532;11.156;2023-02-28T10:01:01;1.20;95.60
15274;DHT22;7738;49.532;11.156;2023-02-28T10:03:36;1.40;95.20
15274;DHT22;7738;49.532;11.156;2023-02-28T10:06:13;1.60;93.70
15274;DHT22;7738;49.532;11.156;2023-02-28T10:08:50;1.70;99.90
15274;DHT22;7738;49.532;11.156;2023-02-28T10:11:23;1.70;92.90
15274;DHT22;7738;49.532;11.156;2023-02-28T10:13:58;2.10;92.50
15274;DHT22;7738;49.532;11.156;2023-02-28T10:16:34;2.30;92.30
15274;DHT22;7738;49.532;11.156;2023-02-28T10:19:08;2.50;91.00
15274;DHT22;7738;49.532;11.156;2023-02-28T10:21:42;2.40;89.80
15274;DHT22;7738;49.532;11.156;2023-02-28T10:24:19;2.60;90.70
15274;DHT22;7738;49.532;11.156;2023-02-28T10:26:52;3.00;89.10
15274;DHT22;7738;49.532;11.156;2023-02-28T10:29:31;3.00;87.30
15274;DHT22;7738;49.532;11.156;2023-02-28T10:32:03;3.30;83.70
15274;DHT22;7738;49.532;11.156;2023-02-28T10:34:34;3.20;82.00
15274;DHT22;7738;49.532;11.156;2023-02-28T10:37:05;3.00;85.00
15274;DHT22;7738;49.532;11.156;2023-02-28T10:39:39;3.30;84.50
15274;DHT22;7738;49.532;11.156;2023-02-28T10:42:21;3.60;82.20
15274;DHT22;7738;49.532;11.156;2023-02-28T10:45:11;3.60;79.40
15274;DHT22;7738;49.532;11.156;2023-02-28T10:47:51;3.60;82.30
15274;DHT22;7738;49.532;11.156;2023-02-28T10:50:44;4.10;79.80
15274;DHT22;7738;49.532;11.156;2023-02-28T10:53:30;4.10;76.20
15274;DHT22;7738;49.532;11.156;2023-02-28T10:56:06;3.90;75.40
15274;DHT22;7738;49.532;11.156;2023-02-28T10:58:54;4.20;97.50
15274;DHT22;7738;49.532;11.156;2023-02-28T11:01:38;4.10;74.20
15274;DHT22;7738;49.532;11.156;2023-02-28T11:04:19;3.70;75.10
15274;DHT22;7738;49.532;11.156;2023-02-28T11:06:57;3.90;74.50
15274;DHT22;7738;49.532;11.156;2023-02-28T11:09:30;3.90;75.70
15274;DHT22;7738;49.532;11.156;2023-02-28T11:12:04;4.40;76.00
15274;DHT22;7738;49.532;11.156;2023-02-28T11:14:40;5.00;73.70
15274;DHT22;7738;49.532;11.156;2023-02-28T11:17:23;5.10;71.10
15274;DHT22;7738;49.532;11.156;2023-02-28T11:19:56;4.60;72.60
15274;DHT22;7738;49.532;11.156;2023-02-28T11:22:31;4.90;72.40
15274;DHT22;7738;49.532;11.156;2023-02-28T11:25:08;4.90;70.00
15274;DHT22;7738;49.532;11.156;2023-02-28T11:27:47;4.90;69.50
15274;DHT22;7738;49.532;11.156;2023-02-28T11:30:30;5.50;68.90
15274;DHT22;7738;49.532;11.156;2023-02-28T11:33:22;5.00;69.50
15274;DHT22;7738;49.532;11.156;2023-02-28T11:35:53;4.80;71.60
15274;DHT22;7738;49.532;11.156;2023-02-28T11:38:26;4.90;76.80
15274;DHT22;7738;49.532;11.156;2023-02-28T11:41:08;5.50;79.60
15274;DHT22;7738;49.532;11.156;2023-02-28T11:43:53;5.80;78.40
15274;DHT22;7738;49.532;11.156;2023-02-28T11:46:32;5.70;67.60
15274;DHT22;7738;49.532;11.156;2023-02-28T11:49:17;5.60;65.40
15274;DHT22;7738;49.532;11.156;2023-02-28T11:51:54;5.40;64.80
15274;DHT22;7738;49.532;11.156;2023-02-28T11:54:35;5.70;65.90
15274;DHT22;7738;49.532;11.156;2023-02-28T11:57:26;6.10;66.60
15274;DHT22;7738;49.532;11.156;2023-02-28T12:00:06;6.30;67.20
15274;DHT22;7738;49.532;11.156;2023-02-28T12:02:51;7.00;69.80
15274;DHT22;7738;49.532;11.156;2023-02-28T12:05:31;6.30;63.70
15274;DHT22;7738;49.532;11.156;2023-02-28T12:08:11;6.40;62.50
15274;DHT22;7738;49.532;11.156;2023-02-28T12:10:57;6.50;63.20
15274;DHT22;7738;49.532;11.156;2023-02-28T12:13:37;6.10;62.90
15274;DHT22;7738;49.532;11.156;2023-02-28T12:16:30;6.60;63.10
15274;DHT22;7738;49.532;11.156;2023-02-28T12:19:17;6.20;63.00
15274;DHT22;7738;49.532;11.156;2023-02-28T12:22:00;5.80;59.80
15274;DHT22;7738;49.532;11.156;2023-02-28T12:24:55;6.00;75.80
15274;DHT22;7738;49.532;11.156;2023-02-28T12:27:33;6.00;76.30
15274;DHT22;7738;49.532;11.156;2023-02-28T12:30:12;5.90;74.80
15274;DHT22;7738;49.532;11.156;2023-02-28T12:32:44;6.20;62.20
15274;DHT22;7738;49.532;11.156;2023-02-28T12:35:21;6.50;65.40
15274;DHT22;7738;49.532;11.156;2023-02-28T12:37:59;6.40;60.50
15274;DHT22;7738;49.532;11.156;2023-02-28T12:40:40;6.20;60.00
15274;DHT22;7738;49.532;11.156;2023-02-28T12:43:15;6.20;72.90
15274;DHT22;7738;49.532;11.156;2023-02-28T12:45:48;6.10;60.50
15274;DHT22;7738;49.532;11.156;2023-02-28T12:48:24;5.90;61.60
15274;DHT22;7738;49.532;11.156;2023-02-28T12:53:40;6.20;60.70
15274;DHT22;7738;49.532;11.156;2023-02-28T12:56:17;6.20;61.70
15274;DHT22;7738;49.532;11.156;2023-02-28T12:58:53;6.30;61.40
15274;DHT22;7738;49.532;11.156;2023-02-28T13:01:39;6.70;75.80
15274;DHT22;7738;49.532;11.156;2023-02-28T13:07:45;6.70;70.50
15274;DHT22;7738;49.532;11.156;2023-02-28T13:10:22;6.60;67.70
15274;DHT22;7738;49.532;11.156;2023-02-28T13:12:54;6.50;64.90
15274;DHT22;7738;49.532;11.156;2023-02-28T13:15:26;6.20;62.10
15274;DHT22;7738;49.532;11.156;2023-02-28T13:17:58;6.50;78.80
15274;DHT22;7738;49.532;11.156;2023-02-28T13:20:33;6.20;62.30
15274;DHT22;7738;49.532;11.156;2023-02-28T13:23:36;6.70;61.00
15274;DHT22;7738;49.532;11.156;2023-02-28T13:26:09;7.00;59.80
15274;DHT22;7738;49.532;11.156;2023-02-28T13:29:21;7.00;58.70
15274;DHT22;7738;49.532;11.156;2023-02-28T13:32:25;6.90;58.80
15274;DHT22;7738;49.532;11.156;2023-02-28T13:35:13;8.20;61.10
15274;DHT22;7738;49.532;11.156;2023-02-28T13:37:47;6.90;58.90
15274;DHT22;7738;49.532;11.156;2023-02-28T13:40:31;6.40;75.70
15274;DHT22;7738;49.532;11.156;2023-02-28T13:43:10;6.40;59.80
15274;DHT22;7738;49.532;11.156;2023-02-28T13:46:11;6.50;60.00
15274;DHT22;7738;49.532;11.156;2023-02-28T13:48:41;6.80;63.70
15274;DHT22;7738;49.532;11.156;2023-02-28T13:51:28;6.90;72.50
15274;DHT22;7738;49.532;11.156;2023-02-28T13:54:21;6.70;78.10
15274;DHT22;7738;49.532;11.156;2023-02-28T13:57:05;6.40;59.30
15274;DHT22;7738;49.532;11.156;2023-02-28T13:59:46;6.10;74.10
15274;DHT22;7738;49.532;11.156;2023-02-28T14:02:37;6.40;75.70
15274;DHT22;7738;49.532;11.156;2023-02-28T14:05:14;7.30;76.20
15274;DHT22;7738;49.532;11.156;2023-02-28T14:07:47;6.30;76.50
15274;DHT22;7738;49.532;11.156;2023-02-28T14:10:25;5.80;66.20
15274;DHT22;7738;49.532;11.156;2023-02-28T14:13:02;6.30;73.50
15274;DHT22;7738;49.532;11.156;2023-02-28T14:15:48;6.70;74.60
15274;DHT22;7738;49.532;11.156;2023-02-28T14:18:29;6.00;60.70
15274;DHT22;7738;49.532;11.156;2023-02-28T14:21:11;5.90;60.10
15274;DHT22;7738;49.532;11.156;2023-02-28T14:23:56;5.80;75.60
15274;DHT22;7738;49.532;11.156;2023-02-28T14:29:51;6.00;78.00
15274;DHT22;7738;49.532;11.156;2023-02-28T14:32:33;6.10;77.30
15274;DHT22;7738;49.532;11.156;2023-02-28T14:35:16;6.20;61.30
15274;DHT22;7738;49.532;11.156;2023-02-28T14:40:22;6.20;61.10
15274;DHT22;7738;49.532;11.156;2023-02-28T14:42:56;6.10;67.70
15274;DHT22;7738;49.532;11.156;2023-02-28T14:45:28;6.00;61.30
15274;DHT22;7738;49.532;11.156;2023-02-28T14:48:02;6.10;65.40
15274;DHT22;7738;49.532;11.156;2023-02-28T14:50:35;6.00;61.40
15274;DHT22;7738;49.532;11.156;2023-02-28T14:53:10;5.70;60.50
15274;DHT22;7738;49.532;11.156;2023-02-28T14:55:46;5.10;75.00
15274;DHT22;7738;49.532;11.156;2023-02-28T14:58:23;5.30;62.90
15274;DHT22;7738;49.532;11.156;2023-02-28T15:00:55;5.80;66.80
15274;DHT22;7738;49.532;11.156;2023-02-28T15:03:32;5.30;63.80
15274;DHT22;7738;49.532;11.156;2023-02-28T15:06:04;5.20;63.80
15274;DHT22;7738;49.532;11.156;2023-02-28T15:08:34;4.70;66.70
15274;DHT22;7738;49.532;11.156;2023-02-28T15:11:06;5.30;67.90
15274;DHT22;7738;49.532;11.156;2023-02-28T15:13:40;4.80;79.60
15274;DHT22;7738;49.532;11.156;2023-02-28T15:16:12;5.10;65.60
15274;DHT22;7738;49.532;11.156;2023-02-28T15:18:49;5.50;81.10
15274;DHT22;7738;49.532;11.156;2023-02-28T15:21:21;4.80;66.50
15274;DHT22;7738;49.532;11.156;2023-02-28T15:23:55;4.70;65.50
15274;DHT22;7738;49.532;11.156;2023-02-28T15:26:30;4.50;67.10
15274;DHT22;7738;49.532;11.156;2023-02-28T15:29:05;4.60;66.90
15274;DHT22;7738;49.532;11.156;2023-02-28T15:31:42;4.40;67.30
15274;DHT22;7738;49.532;11.156;2023-02-28T15:34:33;4.30;67.80
15274;DHT22;7738;49.532;11.156;2023-02-28T15:37:27;4.20;83.40
15274;DHT22;7738;49.532;11.156;2023-02-28T15:40:07;4.30;84.20
15274;DHT22;7738;49.532;11.156;2023-02-28T15:42:37;4.00;76.10
15274;DHT22;7738;49.532;11.156;2023-02-28T15:48:17;3.60;71.10
15274;DHT22;7738;49.532;11.156;2023-02-28T15:50:53;3.90;86.00
15274;DHT22;7738;49.532;11.156;2023-02-28T15:53:27;4.20;75.30
15274;DHT22;7738;49.532;11.156;2023-02-28T15:56:00;3.80;87.00
15274;DHT22;7738;49.532;11.156;2023-02-28T15:58:32;3.40;73.70
15274;DHT22;7738;49.532;11.156;2023-02-28T16:01:15;3.00;87.90
15274;DHT22;7738;49.532;11.156;2023-02-28T16:03:48;3.10;88.90
15274;DHT22;7738;49.532;11.156;2023-02-28T16:06:45;3.10;89.20
15274;DHT22;7738;49.532;11.156;2023-02-28T16:09:16;2.80;80.40
15274;DHT22;7738;49.532;11.156;2023-02-28T16:11:48;3.10;90.90
15274;DHT22;7738;49.532;11.156;2023-02-28T16:14:21;2.80;77.70
15274;DHT22;7738;49.532;11.156;2023-02-28T16:16:55;2.50;79.90
15274;DHT22;7738;49.532;11.156;2023-02-28T16:19:25;2.90;90.00
15274;DHT22;7738;49.532;11.156;2023-02-28T16:21:58;2.60;79.20
15274;DHT22;7738;49.532;11.156;2023-02-28T16:24:28;2.70;91.40
15274;DHT22;7738;49.532;11.156;2023-02-28T16:26:59;3.30;92.30
15274;DHT22;7738;49.532;11.156;2023-02-28T16:29:31;2.30;83.70
15274;DHT22;7738;49.532;11.156;2023-02-28T16:32:04;2.20;91.10
15274;DHT22;7738;49.532;11.156;2023-02-28T16:34:34;2.00;93.10
15274;DHT22;7738;49.532;11.156;2023-02-28T16:37:11;2.00;83.40
15274;DHT22;7738;49.532;11.156;2023-02-28T16:39:42;2.10;91.50
15274;DHT22;7738;49.532;11.156;2023-02-28T16:42:16;2.10;92.10
15274;DHT22;7738;49.532;11.156;2023-02-28T16:44:49;1.60;93.90
15274;DHT22;7738;49.532;11.156;2023-02-28T16:47:19;1.70;90.30
15274;DHT22;7738;49.532;11.156;2023-02-28T16:49:49;1.60;95.10
15274;DHT22;7738;49.532;11.156;2023-02-28T16:52:21;1.60;88.00
15274;DHT22;7738;49.532;11.156;2023-02-28T16:57:23;1.50;96.50
15274;DHT22;7738;49.532;11.156;2023-02-28T17:02:23;1.20;97.20
15274;DHT22;7738;49.532;11.156;2023-02-28T17:07:26;1.80;93.10
15274;DHT22;7738;49.532;11.156;2023-02-28T17:09:56;1.00;98.30
15274;DHT22;7738;49.532;11.156;2023-02-28T17:12:35;1.00;98.90
15274;DHT22;7738;49.532;11.156;2023-02-28T17:15:07;0.80;92.80
15274;DHT22;7738;49.532;11.156;2023-02-28T17:17:38;0.50;99.70
15274;DHT22;7738;49.532;11.156;2023-02-28T17:20:12;0.80;93.00
15274;DHT22;7738;49.532;11.156;2023-02-28T17:22:44;0.70;93.20
15274;DHT22;7738;49.532;11.156;2023-02-28T17:25:14;0.80;97.00
15274;DHT22;7738;49.532;11.156;2023-02-28T17:27:45;0.60;97.90
15274;DHT22;7738;49.532;11.156;2023-02-28T17:30:17;0.50;94.70
15274;DHT22;7738;49.532;11.156;2023-02-28T17:37:50;0.30;96.10